createdAt,value
2023-03-26T00:01:36.832Z,43.95
2023-03-26T00:04:39.305Z,43.82
2023-03-26T00:07:42.465Z,43.51
2023-03-26T00:10:44.786Z,43.37
2023-03-26T00:13:47.736Z,43.48
2023-03-26T00:16:50.217Z,43.29
2023-03-26T00:19:53.671Z,43.60
2023-03-26T00:22:56.431Z,43.93
2023-03-26T00:25:58.938Z,43.42
2023-03-26T00:29:03.383Z,44.34
2023-03-26T00:32:06.239Z,43.73
2023-03-26T00:35:09.005Z,43.54
2023-03-26T00:38:11.294Z,43.62
2023-03-26T00:41:23.153Z,44.55
2023-03-26T00:44:26.066Z,44.41
2023-03-26T00:47:29.389Z,44.80
2023-03-26T00:50:31.675Z,44.46
2023-03-26T00:53:33.934Z,44.81
2023-03-26T00:56:37.049Z,44.59
2023-03-26T00:59:39.610Z,44.43
2023-03-26T01:02:43.573Z,44.56
2023-03-26T01:05:52.990Z,45.07
2023-03-26T01:09:00.137Z,45.01
2023-03-26T01:12:05.221Z,45.16
2023-03-26T01:15:08.362Z,45.28
2023-03-26T01:18:14.147Z,45.33
2023-03-26T01:21:22.802Z,45.42
2023-03-26T01:24:25.235Z,45.25
2023-03-26T01:27:46.768Z,45.23
2023-03-26T01:31:01.462Z,45.22
2023-03-26T01:34:16.198Z,44.56
2023-03-26T01:37:46.881Z,44.45
2023-03-26T01:41:10.835Z,44.46
2023-03-26T01:44:28.543Z,43.92
2023-03-26T01:47:31.440Z,43.61
2023-03-26T01:50:33.801Z,43.63
2023-03-26T01:53:39.549Z,43.39
2023-03-26T01:56:57.080Z,43.64
2023-03-26T02:00:27.514Z,43.68
2023-03-26T02:03:37.599Z,43.42
2023-03-26T02:06:45.986Z,43.44
2023-03-26T02:09:52.713Z,43.42
2023-03-26T02:12:55.470Z,43.77
2023-03-26T02:16:02.269Z,43.49
2023-03-26T02:19:04.671Z,43.16
2023-03-26T02:22:11.014Z,43.46
2023-03-26T02:25:19.167Z,44.04
2023-03-26T02:28:22.588Z,43.99
2023-03-26T02:31:30.327Z,44.06
2023-03-26T02:34:32.713Z,43.66
2023-03-26T02:37:35.016Z,43.78
2023-03-26T02:40:45.391Z,43.71
2023-03-26T02:43:47.737Z,43.89
2023-03-26T02:46:52.872Z,43.91
2023-03-26T02:50:16.420Z,44.33
2023-03-26T02:53:43.753Z,44.71
2023-03-26T02:57:04.045Z,44.28
2023-03-26T03:00:26.624Z,44.95
2023-03-26T03:03:37.985Z,45.84
2023-03-26T03:07:02.508Z,44.83
2023-03-26T03:10:08.720Z,46.02
2023-03-26T03:13:30.880Z,45.91
2023-03-26T03:16:33.484Z,46.46
2023-03-26T03:19:41.844Z,45.93
2023-03-26T03:22:44.487Z,46.32
2023-03-26T03:25:47.209Z,46.30
2023-03-26T03:28:49.933Z,46.71
2023-03-26T03:31:52.839Z,46.80
2023-03-26T03:35:19.201Z,46.81
2023-03-26T03:38:25.304Z,47.40
2023-03-26T03:41:29.706Z,46.85
2023-03-26T03:44:32.173Z,46.92
2023-03-26T03:47:35.383Z,46.60
2023-03-26T03:50:38.301Z,46.39
2023-03-26T03:54:01.956Z,46.41
2023-03-26T03:57:36.609Z,46.14
2023-03-26T04:00:44.900Z,47.15
2023-03-26T04:04:05.696Z,46.37
2023-03-26T04:07:22.721Z,46.45
2023-03-26T04:10:47.795Z,47.27
2023-03-26T04:14:16.118Z,47.88
2023-03-26T04:17:32.387Z,48.14
2023-03-26T04:20:35.599Z,47.62
2023-03-26T04:23:38.928Z,48.44
2023-03-26T04:26:51.663Z,48.88
2023-03-26T04:29:59.924Z,49.43
2023-03-26T04:33:04.274Z,48.97
2023-03-26T04:36:10.302Z,49.53
2023-03-26T04:39:13.322Z,49.60
2023-03-26T04:42:41.760Z,49.88
2023-03-26T04:45:54.605Z,49.41
2023-03-26T04:49:00.679Z,48.31
2023-03-26T04:52:03.021Z,48.09
2023-03-26T04:55:42.280Z,48.18
2023-03-26T04:58:56.978Z,48.30
2023-03-26T05:02:02.104Z,47.81
2023-03-26T05:05:09.252Z,46.68
2023-03-26T05:08:12.004Z,47.19
2023-03-26T05:11:14.366Z,46.54
2023-03-26T05:14:16.939Z,45.73
2023-03-26T05:17:21.435Z,44.65
2023-03-26T05:20:26.444Z,43.83
2023-03-26T05:23:28.686Z,42.76
2023-03-26T05:26:51.964Z,42.94
2023-03-26T05:30:02.229Z,43.87
2023-03-26T05:33:06.734Z,43.26
2023-03-26T05:36:19.552Z,44.12
2023-03-26T05:39:26.975Z,42.10
2023-03-26T05:42:41.333Z,41.41
2023-03-26T05:46:07.757Z,42.13
2023-03-26T05:49:10.306Z,38.31
2023-03-26T05:52:15.277Z,35.60
2023-03-26T05:55:40.736Z,36.04
2023-03-26T05:59:01.530Z,33.76
2023-03-26T06:02:23.754Z,37.37
2023-03-26T06:05:44.435Z,37.93
2023-03-26T06:09:06.794Z,37.74
2023-03-26T06:12:10.364Z,37.62
2023-03-26T06:15:14.129Z,37.96
2023-03-26T06:18:23.110Z,37.66
2023-03-26T06:21:42.490Z,39.40
2023-03-26T06:24:53.765Z,40.12
2023-03-26T06:28:14.533Z,39.83
2023-03-26T06:31:51.710Z,41.17
2023-03-26T06:34:57.333Z,40.86
2023-03-26T06:37:59.852Z,42.14
2023-03-26T06:41:06.837Z,40.92
2023-03-26T06:44:29.314Z,28.63
2023-03-26T06:47:51.877Z,17.76
2023-03-26T06:51:13.037Z,15.01
2023-03-26T06:54:33.675Z,14.37
2023-03-26T06:57:54.161Z,14.91
2023-03-26T07:01:15.545Z,19.81
2023-03-26T07:04:36.660Z,17.82
2023-03-26T07:07:57.648Z,18.27
2023-03-26T07:11:11.901Z,18.52
2023-03-26T07:14:46.433Z,15.00
2023-03-26T07:18:07.180Z,16.85
2023-03-26T07:21:12.412Z,20.56
2023-03-26T07:24:15.505Z,20.54
2023-03-26T07:27:39.341Z,21.91
2023-03-26T07:30:53.662Z,21.67
2023-03-26T07:34:54.619Z,24.07
2023-03-26T07:38:22.994Z,26.61
2023-03-26T07:42:14.070Z,21.80
2023-03-26T07:45:54.711Z,22.14
2023-03-26T07:49:01.831Z,21.66
2023-03-26T07:52:23.106Z,23.11
2023-03-26T07:56:10.235Z,24.62
2023-03-26T07:59:47.308Z,25.50
2023-03-26T08:03:16.880Z,27.02
2023-03-26T08:06:39.569Z,28.50
2023-03-26T08:10:15.021Z,31.63
2023-03-26T08:14:18.942Z,31.89
2023-03-26T08:17:33.154Z,31.45
2023-03-26T08:20:54.353Z,31.98
2023-03-26T08:24:13.678Z,33.38
2023-03-26T08:27:34.582Z,32.76
2023-03-26T08:30:37.283Z,34.58
2023-03-26T08:33:41.250Z,34.92
2023-03-26T08:36:44.576Z,34.97
2023-03-26T08:39:46.850Z,34.60
2023-03-26T08:42:55.573Z,34.54
2023-03-26T08:46:31.374Z,33.74
2023-03-26T08:49:39.209Z,33.66
2023-03-26T08:52:59.825Z,33.90
2023-03-26T08:56:44.341Z,31.46
2023-03-26T09:00:22.033Z,30.33
2023-03-26T09:03:45.392Z,29.65
2023-03-26T09:06:58.135Z,29.07
2023-03-26T09:10:31.383Z,28.74
2023-03-26T09:13:42.252Z,27.88
2023-03-26T09:16:56.585Z,27.94
2023-03-26T09:20:13.477Z,26.43
2023-03-26T09:23:49.714Z,26.59
2023-03-26T09:26:55.089Z,25.29
2023-03-26T09:30:19.276Z,25.75
2023-03-26T09:33:33.848Z,25.68
2023-03-26T09:37:14.720Z,25.80
2023-03-26T09:40:18.942Z,26.91
2023-03-26T09:43:48.858Z,26.29
2023-03-26T09:47:12.910Z,26.53
2023-03-26T09:50:34.103Z,26.97
2023-03-26T09:54:01.925Z,27.71
2023-03-26T09:57:13.578Z,27.61
2023-03-26T10:00:21.669Z,26.46
2023-03-26T10:03:38.160Z,27.12
2023-03-26T10:07:17.595Z,27.58
2023-03-26T10:10:50.263Z,27.89
2023-03-26T10:14:05.655Z,27.92
2023-03-26T10:17:49.323Z,29.08
2023-03-26T10:21:08.351Z,29.84
2023-03-26T10:24:36.518Z,30.23
2023-03-26T10:28:03.366Z,39.72
2023-03-26T10:31:36.243Z,42.10
2023-03-26T10:34:46.909Z,43.56
2023-03-26T10:38:13.545Z,43.88
2023-03-26T10:41:53.890Z,44.82
2023-03-26T10:45:14.752Z,45.18
2023-03-26T10:48:45.352Z,45.14
2023-03-26T10:51:54.930Z,41.26
2023-03-26T10:55:08.628Z,42.92
2023-03-26T10:58:22.074Z,40.11
2023-03-26T11:01:31.520Z,41.37
2023-03-26T11:04:48.553Z,44.42
2023-03-26T11:07:56.815Z,43.66
2023-03-26T11:11:08.910Z,44.38
2023-03-26T11:14:33.852Z,42.11
2023-03-26T11:17:43.391Z,42.46
2023-03-26T11:20:53.677Z,42.21
2023-03-26T11:24:25.972Z,40.94
2023-03-26T11:27:44.470Z,39.84
2023-03-26T11:30:56.465Z,38.96
2023-03-26T11:34:05.782Z,38.60
2023-03-26T11:38:02.368Z,40.89
2023-03-26T11:41:11.445Z,39.52
2023-03-26T11:44:26.955Z,38.82
2023-03-26T11:47:33.971Z,39.55
2023-03-26T11:50:42.053Z,39.02
2023-03-26T11:53:46.877Z,37.33
2023-03-26T11:57:19.837Z,37.83
2023-03-26T12:00:27.528Z,39.42
2023-03-26T12:03:30.459Z,38.53
2023-03-26T12:06:33.007Z,38.81
2023-03-26T12:09:35.370Z,39.40
2023-03-26T12:12:41.391Z,39.50
2023-03-26T12:15:44.285Z,39.71
2023-03-26T12:19:08.244Z,39.01
2023-03-26T12:22:37.313Z,36.50
2023-03-26T12:25:40.183Z,37.15
2023-03-26T12:28:48.240Z,36.61
2023-03-26T12:31:57.391Z,37.31
2023-03-26T12:35:06.096Z,37.05
2023-03-26T12:38:17.341Z,36.51
2023-03-26T12:43:51.643Z,34.87
2023-03-26T12:44:59.253Z,33.95
2023-03-26T12:48:05.048Z,34.21
2023-03-26T12:51:38.209Z,29.36
2023-03-26T12:55:11.830Z,29.69
2023-03-26T12:58:17.655Z,28.96
2023-03-26T13:01:54.586Z,29.97
2023-03-26T13:05:05.676Z,28.48
2023-03-26T13:09:05.060Z,28.96
2023-03-26T13:12:30.954Z,28.80
2023-03-26T13:15:37.532Z,28.99
2023-03-26T13:18:58.927Z,29.81
2023-03-26T13:22:36.886Z,28.46
2023-03-26T13:25:53.313Z,29.26
2023-03-26T13:29:01.490Z,30.23
2023-03-26T13:32:22.167Z,30.31
2023-03-26T13:35:33.910Z,30.64
2023-03-26T13:39:04.962Z,29.30
2023-03-26T13:42:39.799Z,28.59
2023-03-26T13:46:05.425Z,28.89
2023-03-26T13:49:15.639Z,28.64
2023-03-26T13:52:26.482Z,28.59
2023-03-26T13:55:31.944Z,27.42
2023-03-26T13:58:48.820Z,27.39
2023-03-26T14:01:57.439Z,27.91
2023-03-26T14:05:09.468Z,27.44
2023-03-26T14:08:38.392Z,27.74
2023-03-26T14:11:57.891Z,26.67
2023-03-26T14:15:14.043Z,27.36
2023-03-26T14:18:33.823Z,27.64
2023-03-26T14:22:07.067Z,26.80
2023-03-26T14:25:40.029Z,25.75
2023-03-26T14:29:07.630Z,26.09
2023-03-26T14:32:29.685Z,26.14
2023-03-26T14:36:04.361Z,25.68
2023-03-26T14:39:30.597Z,26.40
2023-03-26T14:42:43.325Z,24.77
2023-03-26T14:46:14.235Z,24.14
2023-03-26T14:49:54.625Z,23.76
2023-03-26T14:53:01.145Z,23.81
2023-03-26T14:56:15.734Z,25.27
2023-03-26T14:59:52.034Z,24.32
2023-03-26T15:03:09.244Z,25.44
2023-03-26T15:06:33.215Z,24.68
2023-03-26T15:10:09.254Z,24.85
2023-03-26T15:13:40.743Z,25.97
2023-03-26T15:17:03.323Z,25.83
2023-03-26T15:20:05.642Z,26.60
2023-03-26T15:23:32.489Z,25.73
2023-03-26T15:26:53.109Z,26.62
2023-03-26T15:30:10.437Z,27.20
2023-03-26T15:33:34.313Z,27.05
2023-03-26T15:36:58.888Z,27.41
2023-03-26T15:40:22.519Z,27.47
2023-03-26T15:43:29.989Z,27.34
2023-03-26T15:46:38.354Z,28.12
2023-03-26T15:49:43.780Z,28.05
2023-03-26T15:52:53.806Z,28.47
2023-03-26T15:56:16.063Z,28.12
2023-03-26T15:59:37.122Z,28.83
2023-03-26T16:03:10.352Z,28.76
2023-03-26T16:06:21.896Z,29.13
2023-03-26T16:09:39.347Z,29.55
2023-03-26T16:12:56.005Z,28.90
2023-03-26T16:16:04.204Z,28.78
2023-03-26T16:19:21.907Z,29.19
2023-03-26T16:22:43.367Z,29.51
2023-03-26T16:26:12.253Z,29.47
2023-03-26T16:29:14.618Z,29.72
2023-03-26T16:32:28.620Z,29.88
2023-03-26T16:36:02.074Z,29.56
2023-03-26T16:39:04.928Z,29.74
2023-03-26T16:42:17.924Z,29.77
2023-03-26T16:45:29.442Z,29.76
2023-03-26T16:48:37.637Z,30.58
2023-03-26T16:51:39.830Z,30.54
2023-03-26T16:54:52.654Z,30.75
2023-03-26T16:58:05.635Z,30.68
2023-03-26T17:01:27.256Z,30.72
2023-03-26T17:04:29.409Z,31.00
2023-03-26T17:07:43.603Z,31.62
2023-03-26T17:11:22.365Z,31.77
2023-03-26T17:14:33.489Z,31.73
2023-03-26T17:17:51.125Z,32.14
2023-03-26T17:21:09.710Z,31.98
2023-03-26T17:24:27.470Z,31.91
2023-03-26T17:28:20.356Z,32.09
2023-03-26T17:31:23.707Z,32.48
2023-03-26T17:34:37.992Z,33.47
2023-03-26T17:37:47.810Z,33.13
2023-03-26T17:40:55.786Z,33.17
2023-03-26T17:43:58.298Z,33.41
2023-03-26T17:47:00.920Z,33.37
2023-03-26T17:50:11.987Z,32.87
2023-03-26T17:53:24.263Z,33.24
2023-03-26T17:56:29.508Z,32.65
2023-03-26T17:59:32.342Z,33.10
2023-03-26T18:02:39.536Z,33.24
2023-03-26T18:05:42.291Z,32.88
2023-03-26T18:08:59.513Z,33.19
2023-03-26T18:12:32.402Z,33.20
2023-03-26T18:15:56.314Z,33.59
2023-03-26T18:19:06.965Z,33.48
2023-03-26T18:22:18.833Z,33.33
2023-03-26T18:25:30.416Z,33.63
2023-03-26T18:28:35.598Z,33.58
2023-03-26T18:31:41.271Z,33.52
2023-03-26T18:34:50.113Z,33.96
2023-03-26T18:37:56.936Z,33.62
2023-03-26T18:40:59.275Z,33.57
2023-03-26T18:44:03.521Z,33.73
2023-03-26T18:47:07.153Z,34.30
2023-03-26T18:50:15.419Z,34.20
2023-03-26T18:53:25.476Z,34.41
2023-03-26T18:56:32.393Z,34.29
2023-03-26T18:59:41.022Z,34.65
2023-03-26T19:02:44.474Z,34.08
2023-03-26T19:05:46.846Z,33.99
2023-03-26T19:08:49.690Z,34.20
2023-03-26T19:11:57.183Z,34.58
2023-03-26T19:15:06.049Z,34.52
2023-03-26T19:18:14.161Z,34.63
2023-03-26T19:21:18.104Z,35.58
2023-03-26T19:24:21.390Z,35.86
2023-03-26T19:27:24.239Z,35.64
2023-03-26T19:30:35.170Z,36.13
2023-03-26T19:33:40.346Z,36.42
2023-03-26T19:36:59.477Z,36.30
2023-03-26T19:40:30.219Z,36.64
2023-03-26T19:43:32.592Z,36.72
2023-03-26T19:47:47.346Z,37.04
2023-03-26T19:50:01.819Z,36.90
2023-03-26T19:53:16.566Z,37.02
2023-03-26T19:56:20.871Z,38.79
2023-03-26T19:59:23.840Z,38.67
2023-03-26T20:02:26.728Z,37.36
2023-03-26T20:05:34.224Z,37.13
2023-03-26T20:08:36.519Z,36.80
2023-03-26T20:11:40.915Z,37.37
2023-03-26T20:14:45.261Z,37.38
2023-03-26T20:17:50.263Z,37.00
2023-03-26T20:20:54.730Z,37.34
2023-03-26T20:23:57.211Z,37.17
2023-03-26T20:26:59.472Z,37.22
2023-03-26T20:30:01.862Z,37.40
2023-03-26T20:33:12.849Z,37.29
2023-03-26T20:36:34.059Z,37.53
2023-03-26T20:39:37.821Z,37.26
2023-03-26T20:42:41.484Z,37.13
2023-03-26T20:45:45.292Z,37.32
2023-03-26T20:48:47.781Z,37.55
2023-03-26T20:51:50.055Z,37.76
2023-03-26T20:54:52.312Z,37.84
2023-03-26T20:57:55.271Z,38.12
2023-03-26T21:01:00.714Z,37.66
2023-03-26T21:04:04.322Z,38.09
2023-03-26T21:07:17.562Z,38.30
2023-03-26T21:10:21.641Z,38.00
2023-03-26T21:14:05.219Z,38.19
2023-03-26T21:17:14.718Z,38.17
2023-03-26T21:20:21.201Z,38.74
2023-03-26T21:23:31.281Z,39.50
2023-03-26T21:26:57.989Z,39.51
2023-03-26T21:30:00.601Z,39.12
2023-03-26T21:33:05.261Z,39.71
2023-03-26T21:36:08.309Z,39.70
2023-03-26T21:39:11.237Z,39.82
2023-03-26T21:42:13.899Z,42.29
2023-03-26T21:45:17.354Z,43.55
2023-03-26T21:48:20.207Z,44.19
2023-03-26T21:51:22.703Z,44.14
2023-03-26T21:54:27.987Z,44.69
2023-03-26T21:57:44.835Z,45.94
2023-03-26T22:01:09.588Z,46.80
2023-03-26T22:04:18.401Z,46.86
2023-03-26T22:07:30.696Z,48.51
2023-03-26T22:10:32.976Z,48.19
2023-03-26T22:13:38.815Z,46.90
2023-03-26T22:16:41.674Z,48.63
2023-03-26T22:19:44.022Z,48.95
2023-03-26T22:22:48.754Z,49.33
2023-03-26T22:25:51.533Z,50.72
2023-03-26T22:28:53.763Z,52.55
2023-03-26T22:31:56.052Z,53.25
2023-03-26T22:34:58.356Z,53.68
2023-03-26T22:38:01.279Z,54.96
2023-03-26T22:41:03.815Z,55.16
2023-03-26T22:44:19.219Z,55.07
2023-03-26T22:47:22.752Z,55.11
2023-03-26T22:50:25.925Z,55.30
2023-03-26T22:53:28.718Z,55.35
2023-03-26T22:56:30.966Z,55.69
2023-03-26T22:59:33.207Z,55.40
2023-03-26T23:02:35.794Z,55.88
2023-03-26T23:05:38.090Z,56.29
2023-03-26T23:08:40.918Z,56.69
2023-03-26T23:11:43.204Z,56.91
2023-03-26T23:14:45.487Z,57.91
2023-03-26T23:17:54.415Z,58.13
2023-03-26T23:20:57.926Z,58.53
2023-03-26T23:24:00.472Z,58.82
2023-03-26T23:27:03.534Z,59.00
2023-03-26T23:30:05.950Z,58.91
2023-03-26T23:33:09.039Z,59.19
2023-03-26T23:36:12.573Z,59.71
2023-03-26T23:39:14.785Z,60.78
2023-03-26T23:42:17.362Z,60.38
2023-03-26T23:45:31.131Z,61.76
2023-03-26T23:48:33.391Z,60.64
2023-03-26T23:51:36.677Z,61.74
2023-03-26T23:54:39.062Z,61.46
2023-03-26T23:57:43.460Z,60.88
